createdAt,value
2022-12-05T00:01:53.064Z,53.67
2022-12-05T00:04:21.401Z,54.73
2022-12-05T00:06:49.499Z,52.07
2022-12-05T00:09:17.641Z,52.40
2022-12-05T00:11:47.087Z,51.53
2022-12-05T00:14:16.569Z,52.33
2022-12-05T00:16:45.474Z,55.13
2022-12-05T00:19:15.405Z,52.50
2022-12-05T00:21:44.108Z,54.17
2022-12-05T00:24:15.815Z,57.07
2022-12-05T00:26:44.740Z,56.00
2022-12-05T00:29:13.399Z,57.50
2022-12-05T00:31:43.048Z,55.00
2022-12-05T00:34:11.772Z,57.43
2022-12-05T00:36:39.866Z,56.47
2022-12-05T00:39:09.658Z,55.87
2022-12-05T00:41:37.777Z,56.30
2022-12-05T00:44:06.359Z,57.20
2022-12-05T00:46:36.104Z,56.87
2022-12-05T00:49:07.478Z,55.90
2022-12-05T00:51:37.642Z,57.10
2022-12-05T00:54:07.749Z,57.50
2022-12-05T00:56:36.199Z,62.67
2022-12-05T00:59:05.967Z,60.97
2022-12-05T01:01:36.194Z,61.50
2022-12-05T01:04:10.684Z,60.73
2022-12-05T01:06:39.469Z,61.60
2022-12-05T01:09:07.974Z,60.63
2022-12-05T01:11:41.011Z,61.30
2022-12-05T01:14:10.077Z,61.13
2022-12-05T01:16:40.451Z,63.40
2022-12-05T01:19:13.501Z,58.63
2022-12-05T01:21:41.750Z,60.50
2022-12-05T01:24:10.715Z,61.23
2022-12-05T01:26:39.524Z,61.47
2022-12-05T01:29:07.899Z,64.60
2022-12-05T01:31:37.769Z,62.10
2022-12-05T01:34:08.034Z,59.20
2022-12-05T01:36:39.367Z,61.10
2022-12-05T01:39:08.738Z,60.43
2022-12-05T01:41:39.392Z,59.93
2022-12-05T01:44:09.938Z,62.03
2022-12-05T01:46:40.400Z,62.30
2022-12-05T01:49:11.320Z,62.27
2022-12-05T01:51:44.162Z,62.80
2022-12-05T01:54:14.641Z,64.07
2022-12-05T01:56:47.058Z,63.67
2022-12-05T01:59:15.959Z,64.30
2022-12-05T02:01:44.045Z,63.70
2022-12-05T02:04:12.480Z,66.57
2022-12-05T02:06:42.472Z,61.17
2022-12-05T02:09:10.769Z,66.20
2022-12-05T02:11:47.732Z,65.00
2022-12-05T02:14:29.142Z,69.13
2022-12-05T02:17:03.337Z,67.60
2022-12-05T02:20:04.020Z,68.73
2022-12-05T02:23:23.450Z,67.43
2022-12-05T02:26:22.768Z,66.77
2022-12-05T02:29:23.664Z,66.63
2022-12-05T02:31:59.832Z,66.00
2022-12-05T02:34:32.815Z,63.77
2022-12-05T02:37:05.803Z,62.83
2022-12-05T02:39:43.432Z,64.87
2022-12-05T02:42:16.444Z,68.03
2022-12-05T02:44:48.931Z,70.43
2022-12-05T02:47:22.949Z,63.70
2022-12-05T02:49:52.679Z,63.10
2022-12-05T02:52:20.999Z,65.50
2022-12-05T02:54:51.876Z,63.70
2022-12-05T02:57:21.993Z,65.27
2022-12-05T02:59:50.029Z,64.00
2022-12-05T03:02:27.969Z,65.40
2022-12-05T03:04:58.692Z,66.20
2022-12-05T03:07:29.988Z,66.40
2022-12-05T03:10:01.311Z,70.03
2022-12-05T03:12:34.177Z,66.67
2022-12-05T03:15:07.223Z,67.20
2022-12-05T03:17:43.391Z,67.33
2022-12-05T03:20:20.171Z,71.50
2022-12-05T03:22:53.355Z,71.17
2022-12-05T03:25:26.684Z,72.07
2022-12-05T03:28:01.559Z,69.10
2022-12-05T03:30:31.914Z,71.20
2022-12-05T03:33:06.050Z,68.50
2022-12-05T03:35:40.030Z,69.17
2022-12-05T03:38:12.504Z,68.33
2022-12-05T03:40:45.204Z,69.77
2022-12-05T03:43:23.537Z,71.80
2022-12-05T03:45:56.729Z,70.60
2022-12-05T03:48:31.670Z,70.27
2022-12-05T03:51:01.505Z,72.30
2022-12-05T03:53:35.078Z,72.97
2022-12-05T03:56:10.388Z,70.27
2022-12-05T03:58:42.790Z,74.87
2022-12-05T04:01:13.021Z,73.03
2022-12-05T04:03:46.325Z,72.33
2022-12-05T04:06:19.992Z,71.47
2022-12-05T04:08:52.393Z,75.47
2022-12-05T04:11:24.324Z,73.17
2022-12-05T04:13:55.632Z,69.47
2022-12-05T04:16:44.908Z,69.17
2022-12-05T04:19:20.313Z,67.23
2022-12-05T04:21:50.824Z,68.50
2022-12-05T04:24:39.908Z,70.77
2022-12-05T04:27:19.291Z,72.13
2022-12-05T04:29:55.193Z,75.63
2022-12-05T04:32:29.020Z,72.30
2022-12-05T04:35:06.829Z,70.17
2022-12-05T04:37:38.020Z,71.03
2022-12-05T04:40:12.328Z,69.20
2022-12-05T04:42:43.873Z,66.47
2022-12-05T04:45:17.517Z,68.40
2022-12-05T04:47:52.184Z,73.10
2022-12-05T04:50:23.343Z,71.33
2022-12-05T04:52:54.002Z,70.20
2022-12-05T04:55:26.194Z,66.47
2022-12-05T04:58:02.858Z,69.77
2022-12-05T05:00:32.584Z,68.80
2022-12-05T05:03:07.941Z,70.57
2022-12-05T05:05:39.882Z,68.87
2022-12-05T05:08:18.034Z,68.93
2022-12-05T05:10:53.570Z,70.37
2022-12-05T05:13:21.651Z,68.73
2022-12-05T05:15:49.945Z,67.83
2022-12-05T05:18:18.088Z,65.63
2022-12-05T05:20:47.433Z,68.67
2022-12-05T05:23:15.597Z,66.87
2022-12-05T05:25:43.767Z,65.13
2022-12-05T05:28:11.975Z,67.40
2022-12-05T05:30:40.011Z,64.97
2022-12-05T05:33:08.137Z,62.47
2022-12-05T05:35:37.691Z,62.30
2022-12-05T05:38:07.201Z,60.60
2022-12-05T05:40:36.658Z,61.97
2022-12-05T05:43:05.405Z,60.70
2022-12-05T05:45:33.565Z,61.37
2022-12-05T05:48:01.688Z,63.60
2022-12-05T05:50:30.057Z,66.00
2022-12-05T05:52:58.158Z,63.60
2022-12-05T05:55:27.715Z,65.00
2022-12-05T05:57:56.070Z,65.53
2022-12-05T06:00:24.363Z,68.47
2022-12-05T06:02:52.612Z,65.10
2022-12-05T06:05:20.730Z,64.53
2022-12-05T06:07:48.748Z,64.57
2022-12-05T06:10:17.028Z,63.53
2022-12-05T06:12:46.557Z,60.47
2022-12-05T06:15:14.685Z,59.33
2022-12-05T06:17:42.799Z,58.40
2022-12-05T06:20:11.676Z,58.00
2022-12-05T06:22:39.824Z,60.73
2022-12-05T06:25:09.295Z,60.73
2022-12-05T06:27:37.440Z,58.27
2022-12-05T06:30:08.368Z,62.23
2022-12-05T06:32:36.547Z,59.30
2022-12-05T06:35:11.212Z,60.70
2022-12-05T06:37:39.367Z,61.13
2022-12-05T06:40:08.874Z,63.10
2022-12-05T06:42:37.320Z,66.17
2022-12-05T06:45:08.017Z,64.37
2022-12-05T06:47:36.149Z,61.30
2022-12-05T06:50:04.992Z,60.70
2022-12-05T06:52:33.175Z,61.00
2022-12-05T06:55:01.316Z,63.90
2022-12-05T06:57:29.770Z,63.30
2022-12-05T07:00:22.431Z,62.30
2022-12-05T07:02:52.909Z,64.70
2022-12-05T07:05:21.419Z,60.60
2022-12-05T07:07:49.573Z,62.77
2022-12-05T07:10:17.855Z,60.50
2022-12-05T07:12:45.988Z,64.47
2022-12-05T07:15:14.250Z,63.67
2022-12-05T07:17:42.419Z,65.50
2022-12-05T07:20:12.798Z,70.47
2022-12-05T07:22:40.836Z,68.47
2022-12-05T07:25:09.703Z,68.17
2022-12-05T07:27:37.916Z,65.03
2022-12-05T07:30:07.178Z,62.87
2022-12-05T07:32:35.803Z,67.97
2022-12-05T07:35:04.040Z,66.93
2022-12-05T07:37:33.557Z,69.70
2022-12-05T07:40:01.691Z,74.33
2022-12-05T07:42:29.899Z,72.33
2022-12-05T07:44:58.040Z,71.03
2022-12-05T07:47:26.215Z,70.30
2022-12-05T07:49:54.406Z,70.73
2022-12-05T07:52:22.586Z,76.30
2022-12-05T07:54:52.094Z,75.43
2022-12-05T07:57:21.295Z,77.00
2022-12-05T07:59:49.393Z,79.43
2022-12-05T08:02:17.635Z,80.93
2022-12-05T08:04:45.736Z,79.90
2022-12-05T08:07:13.799Z,76.80
2022-12-05T08:09:41.899Z,77.57
2022-12-05T08:12:11.289Z,75.63
2022-12-05T08:14:39.518Z,76.80
2022-12-05T08:17:07.693Z,73.93
2022-12-05T08:19:35.797Z,74.63
2022-12-05T08:22:04.146Z,73.80
2022-12-05T08:24:32.264Z,78.97
2022-12-05T08:27:00.314Z,77.63
2022-12-05T08:29:29.785Z,80.80
2022-12-05T08:31:57.891Z,77.67
2022-12-05T08:34:26.055Z,80.43
2022-12-05T08:36:54.175Z,76.40
2022-12-05T08:39:22.246Z,80.80
2022-12-05T08:41:50.653Z,79.93
2022-12-05T08:44:19.147Z,91.40
2022-12-05T08:46:50.236Z,81.67
2022-12-05T08:49:19.325Z,90.60
2022-12-05T08:51:47.579Z,81.13
2022-12-05T08:54:15.934Z,88.93
2022-12-05T08:56:44.052Z,80.63
2022-12-05T08:59:12.159Z,84.00
2022-12-05T09:01:44.398Z,80.60
2022-12-05T09:04:13.936Z,83.13
2022-12-05T09:06:42.199Z,81.37
2022-12-05T09:09:11.950Z,90.77
2022-12-05T09:11:46.091Z,87.20
2022-12-05T09:14:14.574Z,84.70
2022-12-05T09:16:45.744Z,90.20
2022-12-05T09:19:17.329Z,87.97
2022-12-05T09:21:46.139Z,87.50
2022-12-05T09:24:15.117Z,88.70
2022-12-05T09:26:43.621Z,84.90
2022-12-05T09:29:16.838Z,88.77
2022-12-05T09:31:46.816Z,88.93
2022-12-05T09:34:18.327Z,85.50
2022-12-05T09:36:49.676Z,84.83
2022-12-05T09:39:17.777Z,87.07
2022-12-05T09:42:18.352Z,84.80
2022-12-05T09:45:04.265Z,87.80
2022-12-05T09:47:53.915Z,87.17
2022-12-05T09:50:24.885Z,87.83
2022-12-05T09:53:24.590Z,88.93
2022-12-05T09:55:56.043Z,85.03
2022-12-05T09:58:29.975Z,87.73
2022-12-05T10:01:03.760Z,90.37
2022-12-05T10:03:40.175Z,88.20
2022-12-05T10:06:16.445Z,89.10
2022-12-05T10:09:08.807Z,88.80
2022-12-05T10:11:42.906Z,82.17
2022-12-05T10:14:18.260Z,87.50
2022-12-05T10:16:50.733Z,88.73
2022-12-05T10:19:24.993Z,91.03
2022-12-05T10:22:01.079Z,88.47
2022-12-05T10:24:34.774Z,83.07
2022-12-05T10:27:07.898Z,86.20
2022-12-05T10:29:41.806Z,86.40
2022-12-05T10:32:18.194Z,89.07
2022-12-05T10:34:47.387Z,84.07
2022-12-05T10:37:19.367Z,83.77
2022-12-05T10:39:48.398Z,89.03
2022-12-05T10:42:18.698Z,88.30
2022-12-05T10:44:46.891Z,84.80
2022-12-05T10:47:15.298Z,84.10
2022-12-05T10:49:43.907Z,86.70
2022-12-05T10:52:14.450Z,84.03
2022-12-05T10:54:47.736Z,84.53
2022-12-05T10:57:24.312Z,82.10
2022-12-05T10:59:52.645Z,84.23
2022-12-05T11:02:26.969Z,81.00
2022-12-05T11:04:56.055Z,77.07
2022-12-05T11:07:29.966Z,77.33
2022-12-05T11:10:00.847Z,78.30
2022-12-05T11:12:30.896Z,76.37
2022-12-05T11:15:02.479Z,78.03
2022-12-05T11:17:34.556Z,79.50
2022-12-05T11:20:03.545Z,78.50
2022-12-05T11:22:36.601Z,75.40
2022-12-05T11:25:25.429Z,72.83
2022-12-05T11:27:57.108Z,79.73
2022-12-05T11:30:30.562Z,76.17
2022-12-05T11:33:13.979Z,75.37
2022-12-05T11:35:42.196Z,75.10
2022-12-05T11:38:13.652Z,78.90
2022-12-05T11:40:51.035Z,78.33
2022-12-05T11:43:47.650Z,79.30
2022-12-05T11:46:27.065Z,83.47
2022-12-05T11:49:13.242Z,76.27
2022-12-05T11:51:46.344Z,82.30
2022-12-05T11:54:56.805Z,80.70
2022-12-05T11:57:28.137Z,82.20
2022-12-05T12:00:09.062Z,81.97
2022-12-05T12:03:10.730Z,77.77
2022-12-05T12:05:44.140Z,79.03
2022-12-05T12:08:21.059Z,82.63
2022-12-05T12:10:59.587Z,82.47
2022-12-05T12:13:46.370Z,81.73
2022-12-05T12:16:20.839Z,81.67
2022-12-05T12:19:10.976Z,81.70
2022-12-05T12:21:58.489Z,81.00
2022-12-05T12:24:34.081Z,80.97
2022-12-05T12:27:14.897Z,82.07
2022-12-05T12:29:56.329Z,84.07
2022-12-05T12:32:34.378Z,83.63
2022-12-05T12:35:22.832Z,81.83
2022-12-05T12:38:05.125Z,79.20
2022-12-05T12:40:42.812Z,81.00
2022-12-05T12:43:51.510Z,77.60
2022-12-05T12:46:31.106Z,81.23
2022-12-05T12:49:25.337Z,77.33
2022-12-05T12:51:55.843Z,75.77
2022-12-05T12:55:03.824Z,72.37
2022-12-05T12:57:45.003Z,75.00
2022-12-05T13:00:24.097Z,76.00
2022-12-05T13:03:00.340Z,72.03
2022-12-05T13:05:35.432Z,68.00
2022-12-05T13:08:11.177Z,70.40
2022-12-05T13:10:43.071Z,73.57
2022-12-05T13:13:17.176Z,71.20
2022-12-05T13:15:49.016Z,69.97
2022-12-05T13:18:20.792Z,72.17
2022-12-05T13:20:51.254Z,72.47
2022-12-05T13:23:22.518Z,75.00
2022-12-05T13:25:51.611Z,73.47
2022-12-05T13:28:28.765Z,70.47
2022-12-05T13:31:02.755Z,72.80
2022-12-05T13:33:37.787Z,67.70
2022-12-05T13:36:29.421Z,64.10
2022-12-05T13:39:20.033Z,64.57
2022-12-05T13:42:08.028Z,66.17
2022-12-05T13:44:39.951Z,62.03
2022-12-05T13:47:19.857Z,60.50
2022-12-05T13:49:53.818Z,58.40
2022-12-05T13:52:25.630Z,60.63
2022-12-05T13:54:59.303Z,58.10
2022-12-05T13:57:51.621Z,59.20
2022-12-05T14:00:31.591Z,59.50
2022-12-05T14:03:05.181Z,58.70
2022-12-05T14:05:51.536Z,60.27
2022-12-05T14:08:49.622Z,57.93
2022-12-05T14:11:18.128Z,55.67
2022-12-05T14:13:47.083Z,54.13
2022-12-05T14:16:44.447Z,55.80
2022-12-05T14:19:34.483Z,54.90
2022-12-05T14:22:21.730Z,61.63
2022-12-05T14:24:58.826Z,57.80
2022-12-05T14:27:43.584Z,57.87
2022-12-05T14:30:23.563Z,57.57
2022-12-05T14:32:53.653Z,54.87
2022-12-05T14:35:26.637Z,55.27
2022-12-05T14:37:59.483Z,59.93
2022-12-05T14:40:32.415Z,62.30
2022-12-05T14:43:03.769Z,66.80
2022-12-05T14:45:35.807Z,65.13
2022-12-05T14:48:07.220Z,65.73
2022-12-05T14:50:47.290Z,61.93
2022-12-05T14:53:32.045Z,74.03
2022-12-05T14:56:07.850Z,69.23
2022-12-05T14:58:41.746Z,68.37
2022-12-05T15:01:16.867Z,67.13
2022-12-05T15:04:06.672Z,60.87
2022-12-05T15:06:38.006Z,60.10
2022-12-05T15:09:36.029Z,60.63
2022-12-05T15:12:02.407Z,61.20
2022-12-05T15:14:44.598Z,60.93
2022-12-05T15:17:18.685Z,60.13
2022-12-05T15:19:53.826Z,63.27
2022-12-05T15:22:25.087Z,62.47
2022-12-05T15:24:54.574Z,62.53
2022-12-05T15:27:22.918Z,62.60
2022-12-05T15:29:56.696Z,65.43
2022-12-05T15:32:28.253Z,67.80
2022-12-05T15:35:01.910Z,67.30
2022-12-05T15:37:36.137Z,65.13
2022-12-05T15:40:13.619Z,64.80
2022-12-05T15:42:44.641Z,67.90
2022-12-05T15:45:23.656Z,68.97
2022-12-05T15:47:56.761Z,69.03
2022-12-05T15:50:34.901Z,70.60
2022-12-05T15:53:06.522Z,70.40
2022-12-05T15:55:41.685Z,71.93
2022-12-05T15:58:16.596Z,69.87
2022-12-05T16:00:48.763Z,72.27
2022-12-05T16:03:21.627Z,73.63
2022-12-05T16:05:53.387Z,70.47
2022-12-05T16:08:21.846Z,70.83
2022-12-05T16:10:51.886Z,70.70
2022-12-05T16:13:25.856Z,72.97
2022-12-05T16:15:55.895Z,73.80
2022-12-05T16:18:27.958Z,74.13
2022-12-05T16:20:56.435Z,75.90
2022-12-05T16:23:29.953Z,75.63
2022-12-05T16:26:20.998Z,76.20
2022-12-05T16:28:58.812Z,76.87
2022-12-05T16:31:27.321Z,74.83
2022-12-05T16:34:04.986Z,74.80
2022-12-05T16:36:33.740Z,75.50
2022-12-05T16:39:04.088Z,77.40
2022-12-05T16:41:38.610Z,77.20
2022-12-05T16:44:27.215Z,78.47
2022-12-05T16:46:56.052Z,73.37
2022-12-05T16:49:36.429Z,77.70
2022-12-05T16:52:15.524Z,74.93
2022-12-05T16:54:46.209Z,75.97
2022-12-05T16:57:17.441Z,80.43
2022-12-05T16:59:48.410Z,79.00
2022-12-05T17:02:19.276Z,81.23
2022-12-05T17:04:47.861Z,73.23
2022-12-05T17:07:15.778Z,72.43
2022-12-05T17:09:43.875Z,74.17
2022-12-05T17:12:19.031Z,73.40
2022-12-05T17:14:47.747Z,69.93
2022-12-05T17:17:18.268Z,73.37
2022-12-05T17:19:46.591Z,70.60
2022-12-05T17:22:16.508Z,70.50
2022-12-05T17:24:44.760Z,70.63
2022-12-05T17:27:14.013Z,74.60
2022-12-05T17:29:43.607Z,73.50
2022-12-05T17:32:12.206Z,72.00
2022-12-05T17:34:40.367Z,72.57
2022-12-05T17:37:08.487Z,71.00
2022-12-05T17:39:36.640Z,70.60
2022-12-05T17:42:05.004Z,71.30
2022-12-05T17:44:33.250Z,66.13
2022-12-05T17:47:07.781Z,66.87
2022-12-05T17:49:36.619Z,65.97
2022-12-05T17:54:53.234Z,66.43
2022-12-05T17:57:21.491Z,63.40
2022-12-05T17:59:49.902Z,62.97
2022-12-05T18:02:20.228Z,63.80
2022-12-05T18:04:48.449Z,63.20
2022-12-05T18:07:16.814Z,63.20
2022-12-05T18:09:44.945Z,64.87
2022-12-05T18:12:13.211Z,62.40
2022-12-05T18:14:41.458Z,61.83
2022-12-05T18:17:09.512Z,63.80
2022-12-05T18:19:39.091Z,61.43
2022-12-05T18:22:07.224Z,63.20
2022-12-05T18:24:35.611Z,61.80
2022-12-05T18:27:03.946Z,61.30
2022-12-05T18:29:32.079Z,63.93
2022-12-05T18:32:00.337Z,64.60
2022-12-05T18:34:28.532Z,62.10
2022-12-05T18:36:58.085Z,62.50
2022-12-05T18:39:26.108Z,63.53
2022-12-05T18:41:54.409Z,65.40
2022-12-05T18:44:22.628Z,66.07
2022-12-05T18:46:51.018Z,65.60
2022-12-05T18:49:19.347Z,66.83
2022-12-05T18:51:47.590Z,66.53
2022-12-05T18:54:17.463Z,64.33
2022-12-05T18:56:46.062Z,64.57
2022-12-05T18:59:16.836Z,67.80
2022-12-05T19:01:45.900Z,68.83
2022-12-05T19:04:15.836Z,68.00
2022-12-05T19:06:48.882Z,65.70
2022-12-05T19:09:20.726Z,60.50
2022-12-05T19:11:51.129Z,62.00
2022-12-05T19:14:20.939Z,62.80
2022-12-05T19:16:56.445Z,64.00
2022-12-05T19:19:29.108Z,64.50
2022-12-05T19:21:58.939Z,64.10
2022-12-05T19:24:28.617Z,64.93
2022-12-05T19:26:56.952Z,63.15
2022-12-05T19:29:25.172Z,64.83
2022-12-05T19:31:53.418Z,66.60
2022-12-05T19:34:22.562Z,67.30
2022-12-05T19:36:50.780Z,67.07
2022-12-05T19:39:20.543Z,62.67
2022-12-05T19:41:50.223Z,64.83
2022-12-05T19:44:19.109Z,63.50
2022-12-05T19:46:47.353Z,62.90
2022-12-05T19:49:17.278Z,63.67
2022-12-05T19:51:45.973Z,63.93
2022-12-05T19:54:17.815Z,63.13
2022-12-05T19:56:46.104Z,63.17
2022-12-05T19:59:16.908Z,65.57
2022-12-05T20:01:45.724Z,64.33
2022-12-05T20:04:17.301Z,68.47
2022-12-05T20:06:46.972Z,65.90
2022-12-05T20:09:17.774Z,67.20
2022-12-05T20:11:54.248Z,67.63
2022-12-05T20:14:26.517Z,68.77
2022-12-05T20:16:54.918Z,67.47
2022-12-05T20:19:23.550Z,68.70
2022-12-05T20:21:51.861Z,70.47
2022-12-05T20:24:20.018Z,71.43
2022-12-05T20:26:48.179Z,71.37
2022-12-05T20:29:16.353Z,72.00
2022-12-05T20:31:46.030Z,68.93
2022-12-05T20:34:15.786Z,68.50
2022-12-05T20:36:43.964Z,66.27
2022-12-05T20:39:14.507Z,67.10
2022-12-05T20:41:42.831Z,67.00
2022-12-05T20:44:14.885Z,68.07
2022-12-05T20:46:43.182Z,64.60
2022-12-05T20:49:13.890Z,68.63
2022-12-05T20:51:43.595Z,68.17
2022-12-05T20:54:12.804Z,67.57
2022-12-05T20:56:41.587Z,65.43
2022-12-05T20:59:11.812Z,66.00
2022-12-05T21:01:40.230Z,65.83
2022-12-05T21:04:09.298Z,63.37
2022-12-05T21:06:42.379Z,65.70
2022-12-05T21:09:15.912Z,67.37
2022-12-05T21:11:44.073Z,69.53
2022-12-05T21:14:12.874Z,68.83
2022-12-05T21:16:41.050Z,70.00
2022-12-05T21:19:09.722Z,69.50
2022-12-05T21:21:39.400Z,68.70
2022-12-05T21:24:08.503Z,66.10
2022-12-05T21:26:36.826Z,65.37
2022-12-05T21:29:07.520Z,65.60
2022-12-05T21:31:37.514Z,64.13
2022-12-05T21:34:07.530Z,65.67
2022-12-05T21:36:37.203Z,65.60
2022-12-05T21:39:07.254Z,65.67
2022-12-05T21:41:35.800Z,68.20
2022-12-05T21:44:04.724Z,68.20
2022-12-05T21:46:33.356Z,68.87
2022-12-05T21:49:01.706Z,69.50
2022-12-05T21:51:29.884Z,68.40
2022-12-05T21:53:57.951Z,68.50
2022-12-05T21:56:28.415Z,68.73
2022-12-05T21:58:56.581Z,68.27
2022-12-05T22:01:26.445Z,67.70
2022-12-05T22:03:56.016Z,70.30
2022-12-05T22:06:24.142Z,71.57
2022-12-05T22:08:52.232Z,71.33
2022-12-05T22:11:22.438Z,74.03
2022-12-05T22:13:52.459Z,73.50
2022-12-05T22:16:21.031Z,75.77
2022-12-05T22:18:49.284Z,76.70
2022-12-05T22:21:19.417Z,75.37
2022-12-05T22:23:48.018Z,77.53
2022-12-05T22:26:18.085Z,80.83
2022-12-05T22:28:46.627Z,77.37
2022-12-05T22:31:17.661Z,75.50
2022-12-05T22:33:46.412Z,72.93
2022-12-05T22:36:17.074Z,75.03
2022-12-05T22:38:47.988Z,72.63
2022-12-05T22:41:18.120Z,74.57
2022-12-05T22:43:48.221Z,76.97
2022-12-05T22:46:19.266Z,75.20
2022-12-05T22:48:48.920Z,74.47
2022-12-05T22:51:18.284Z,77.60
2022-12-05T22:53:47.107Z,70.93
2022-12-05T22:56:17.241Z,75.30
2022-12-05T22:58:46.481Z,76.00
2022-12-05T23:01:18.002Z,76.23
2022-12-05T23:03:49.396Z,76.63
2022-12-05T23:06:18.884Z,76.50
2022-12-05T23:08:48.852Z,75.87
2022-12-05T23:11:18.300Z,76.90
2022-12-05T23:13:47.389Z,77.57
2022-12-05T23:16:21.365Z,77.77
2022-12-05T23:18:50.823Z,81.53
2022-12-05T23:21:20.884Z,79.77
2022-12-05T23:23:51.092Z,80.63
2022-12-05T23:26:20.790Z,81.77
2022-12-05T23:28:49.177Z,79.57
2022-12-05T23:31:19.567Z,80.57
2022-12-05T23:33:51.189Z,77.73
2022-12-05T23:36:19.792Z,78.73
2022-12-05T23:38:49.358Z,81.03
2022-12-05T23:41:19.926Z,76.37
2022-12-05T23:43:49.196Z,81.17
2022-12-05T23:46:20.915Z,73.97
2022-12-05T23:48:49.896Z,77.37
2022-12-05T23:51:20.391Z,76.53
2022-12-05T23:53:49.572Z,75.30
2022-12-05T23:56:20.296Z,74.30
2022-12-05T23:58:48.799Z,74.30
